Time;durP1;ratioP1;P1;durP2;ratioP2;P2;SDS_P1;SDS_P2;PMS_P1;PMS_P2;Temp;Humidity;BMP_temperature;BMP_pressure;BME280_temperature;BME280_humidity;BME280_pressure;Samples;Min_cycle;Max_cycle;Signal;HPM_P1;HPM_P2
2022/05/25 00:02:01;;;;;;;7.50;3.88;;;13.40;99.90;;;;;;5050989;28;20103;-49
2022/05/25 00:04:27;;;;;;;3.40;3.10;;;13.40;99.90;;;;;;5051133;28;20010;-55
2022/05/25 00:06:53;;;;;;;4.78;3.70;;;13.30;99.90;;;;;;5051458;28;20021;-54
2022/05/25 00:09:19;;;;;;;4.25;3.85;;;13.30;99.90;;;;;;5051395;28;20327;-55
2022/05/25 00:11:45;;;;;;;5.60;2.65;;;13.40;99.90;;;;;;5051644;28;20415;-54
2022/05/25 00:14:11;;;;;;;3.22;3.03;;;13.30;99.90;;;;;;5051434;28;20032;-52
2022/05/25 00:16:37;;;;;;;3.13;2.38;;;13.30;99.90;;;;;;5051062;28;20400;-52
2022/05/25 00:21:48;;;;;;;6.97;1.90;;;13.10;99.90;;;;;;5051557;28;20094;-54
2022/05/25 00:24:14;;;;;;;6.93;2.03;;;13.00;99.90;;;;;;5050413;28;20045;-55
2022/05/25 00:26:39;;;;;;;2.03;1.70;;;12.90;99.90;;;;;;5049179;28;20083;-55
2022/05/25 00:29:05;;;;;;;2.45;1.85;;;12.90;99.90;;;;;;5050443;28;20495;-52
2022/05/25 00:31:31;;;;;;;12.63;1.92;;;12.90;99.90;;;;;;5050481;28;20044;-51
2022/05/25 00:33:57;;;;;;;5.10;2.40;;;12.90;99.90;;;;;;5049346;28;20036;-54
2022/05/25 00:36:23;;;;;;;4.95;2.38;;;12.80;99.90;;;;;;5050176;28;20024;-55
2022/05/25 00:38:49;;;;;;;2.83;1.90;;;12.70;99.90;;;;;;5051234;28;20021;-53
2022/05/25 00:41:15;;;;;;;1.88;1.77;;;12.70;99.90;;;;;;5051328;28;20029;-54
2022/05/25 00:43:42;;;;;;;4.75;1.80;;;12.70;99.90;;;;;;5051250;28;20384;-49
2022/05/25 00:46:13;;;;;;;2.28;1.95;;;12.70;99.90;;;;;;5050856;28;20500;-52
2022/05/25 00:49:00;;;;;;;3.03;1.80;;;12.60;99.90;;;;;;5051008;28;20108;-53
2022/05/25 00:51:43;;;;;;;3.08;2.15;;;12.70;99.90;;;;;;5050927;28;20037;-49
2022/05/25 00:54:19;;;;;;;3.97;2.40;;;12.70;99.90;;;;;;5051227;28;20056;-51
2022/05/25 00:56:48;;;;;;;6.28;2.60;;;12.80;99.90;;;;;;5051276;28;20021;-54
2022/05/25 00:59:21;;;;;;;3.53;2.40;;;12.70;99.90;;;;;;5050357;28;20446;-52
2022/05/25 01:01:46;;;;;;;6.00;2.60;;;12.80;99.90;;;;;;5049630;28;20019;-49
2022/05/25 01:04:14;;;;;;;8.27;2.38;;;12.80;99.90;;;;;;5049890;28;20108;-53
2022/05/25 01:06:46;;;;;;;3.30;2.15;;;12.90;99.90;;;;;;5050898;28;20584;-52
2022/05/25 01:09:23;;;;;;;2.08;1.98;;;13.00;99.90;;;;;;5050555;28;20025;-50
2022/05/25 01:12:20;;;;;;;2.47;2.28;;;13.00;99.90;;;;;;5049390;28;20033;-53
2022/05/25 01:15:16;;;;;;;4.53;2.30;;;13.00;99.90;;;;;;5050823;28;20086;-55
2022/05/25 01:17:47;;;;;;;3.03;2.53;;;13.00;99.90;;;;;;5049465;28;20059;-52
2022/05/25 01:20:43;;;;;;;7.32;2.58;;;12.90;99.90;;;;;;5050957;28;20040;-53
2022/05/25 01:23:15;;;;;;;2.60;2.40;;;12.80;99.90;;;;;;5050267;28;20427;-52
2022/05/25 01:25:56;;;;;;;3.42;3.13;;;12.80;99.90;;;;;;5050820;28;20074;-55
2022/05/25 01:28:40;;;;;;;4.93;3.08;;;12.70;99.90;;;;;;5050523;28;20025;-53
2022/05/25 01:31:14;;;;;;;4.93;3.17;;;12.70;99.90;;;;;;5050811;28;20048;-52
2022/05/25 01:33:50;;;;;;;10.40;3.78;;;12.80;99.90;;;;;;5048805;28;20037;-53
2022/05/25 01:36:28;;;;;;;3.15;2.95;;;12.80;99.90;;;;;;5050886;28;20056;-50
2022/05/25 01:39:05;;;;;;;3.63;3.33;;;12.80;99.90;;;;;;5050547;28;20029;-51
2022/05/25 01:41:39;;;;;;;9.23;5.70;;;12.80;99.90;;;;;;5050808;28;20094;-51
2022/05/25 01:44:13;;;;;;;7.50;3.20;;;12.80;99.90;;;;;;5051877;28;20027;-52
2022/05/25 01:46:50;;;;;;;8.95;3.80;;;12.80;99.90;;;;;;5053699;28;20403;-55
2022/05/25 01:49:20;;;;;;;6.90;4.88;;;12.80;99.90;;;;;;5052456;28;20063;-53
2022/05/25 01:52:00;;;;;;;8.63;5.05;;;12.90;99.90;;;;;;5053221;28;20119;-52
2022/05/25 01:54:31;;;;;;;5.22;4.72;;;12.90;99.90;;;;;;5053893;28;20036;-52
2022/05/25 01:57:01;;;;;;;4.35;3.95;;;12.90;99.90;;;;;;5053579;28;20452;-50
2022/05/25 01:59:27;;;;;;;7.38;5.05;;;12.90;99.90;;;;;;5053806;28;20025;-55
2022/05/25 02:04:41;;;;;;;5.47;4.78;;;13.00;99.90;;;;;;5053640;28;20027;-54
2022/05/25 02:07:30;;;;;;;7.22;5.03;;;13.00;99.90;;;;;;5053182;28;20361;-55
2022/05/25 02:10:23;;;;;;;8.45;5.53;;;13.00;99.90;;;;;;5053367;28;20572;-55
2022/05/25 02:13:16;;;;;;;5.95;5.30;;;13.00;99.90;;;;;;5053750;28;20033;-51
2022/05/25 02:16:16;;;;;;;6.30;5.63;;;13.00;99.90;;;;;;5053372;28;20078;-54
2022/05/25 02:19:18;;;;;;;5.63;5.13;;;13.00;99.90;;;;;;5053017;28;20079;-53
2022/05/25 02:21:53;;;;;;;7.38;6.55;;;12.90;99.90;;;;;;5052152;28;20471;-54
2022/05/25 02:24:34;;;;;;;7.70;5.80;;;13.00;99.90;;;;;;5053318;28;20037;-54
2022/05/25 02:27:14;;;;;;;8.30;7.40;;;13.00;99.90;;;;;;5053123;28;20130;-54
2022/05/25 02:29:44;;;;;;;7.78;6.97;;;12.90;99.90;;;;;;5052741;28;20396;-53
2022/05/25 02:32:46;;;;;;;14.88;8.13;;;12.90;99.90;;;;;;5053262;28;20043;-55
2022/05/25 02:35:12;;;;;;;11.55;9.05;;;12.80;99.90;;;;;;5048505;28;20033;-52
2022/05/25 02:37:39;;;;;;;8.20;7.40;;;12.80;99.90;;;;;;5053196;28;20069;-51
2022/05/25 02:40:08;;;;;;;9.60;7.88;;;12.80;99.90;;;;;;5052640;28;20367;-51
2022/05/25 02:42:37;;;;;;;7.95;6.75;;;12.80;99.90;;;;;;5053039;28;20033;-53
2022/05/25 02:45:03;;;;;;;6.97;5.43;;;12.80;99.90;;;;;;5052232;28;20043;-50
2022/05/25 02:47:29;;;;;;;7.43;5.38;;;12.80;99.90;;;;;;5052511;28;20532;-54
2022/05/25 02:49:54;;;;;;;8.20;5.70;;;12.90;99.90;;;;;;5051803;28;20103;-54
2022/05/25 02:52:20;;;;;;;4.97;4.57;;;13.00;99.90;;;;;;5051394;28;20072;-52
2022/05/25 02:54:46;;;;;;;10.30;5.93;;;13.00;99.90;;;;;;5051684;28;20040;-53
2022/05/25 02:57:12;;;;;;;7.13;6.13;;;13.00;99.90;;;;;;5052257;28;20021;-52
2022/05/25 02:59:38;;;;;;;10.32;5.93;;;13.10;99.90;;;;;;5052541;28;20334;-52
2022/05/25 03:02:07;;;;;;;6.32;5.82;;;13.10;99.90;;;;;;5051749;28;20049;-55
2022/05/25 03:04:34;;;;;;;8.18;7.00;;;13.10;99.90;;;;;;5052134;28;20103;-55
2022/05/25 03:07:00;;;;;;;12.13;8.13;;;13.10;99.90;;;;;;5052272;28;20531;-52
2022/05/25 03:09:26;;;;;;;13.13;7.22;;;13.10;99.90;;;;;;5052273;28;20063;-48
2022/05/25 03:11:53;;;;;;;9.65;7.72;;;13.10;99.90;;;;;;5051825;28;20480;-52
2022/05/25 03:14:18;;;;;;;12.75;8.80;;;13.00;99.90;;;;;;5051165;28;20025;-52
2022/05/25 03:16:44;;;;;;;9.80;8.68;;;13.00;99.90;;;;;;5050873;28;20035;-52
2022/05/25 03:19:09;;;;;;;12.90;9.20;;;12.90;99.90;;;;;;5051275;28;20057;-52
2022/05/25 03:21:35;;;;;;;10.55;8.50;;;13.00;99.90;;;;;;5051256;28;20052;-55
2022/05/25 03:24:01;;;;;;;11.30;7.75;;;13.00;99.90;;;;;;5051890;28;20631;-52
2022/05/25 03:26:26;;;;;;;12.07;9.05;;;13.00;99.90;;;;;;5051954;28;20082;-54
2022/05/25 03:28:52;;;;;;;9.68;7.15;;;12.90;99.90;;;;;;5050885;28;20386;-53
2022/05/25 03:31:18;;;;;;;9.27;8.30;;;12.90;99.90;;;;;;5050229;28;20037;-52
2022/05/25 03:33:44;;;;;;;17.08;7.93;;;12.90;99.90;;;;;;5052010;28;20111;-54
2022/05/25 03:36:09;;;;;;;12.02;8.50;;;13.00;99.90;;;;;;5052164;28;20418;-50
2022/05/25 03:38:36;;;;;;;8.38;7.53;;;13.00;99.90;;;;;;5049905;28;20021;-52
2022/05/25 03:41:02;;;;;;;11.82;7.80;;;13.00;99.90;;;;;;5052001;28;20024;-51
2022/05/25 03:43:32;;;;;;;9.00;8.10;;;13.00;99.90;;;;;;5051817;28;20392;-55
2022/05/25 03:45:58;;;;;;;9.38;7.50;;;13.00;99.90;;;;;;5050935;28;20029;-55
2022/05/25 03:48:24;;;;;;;8.88;7.68;;;13.00;99.90;;;;;;5050831;28;20016;-54
2022/05/25 03:50:50;;;;;;;9.63;7.55;;;13.00;99.90;;;;;;5051016;28;20017;-50
2022/05/25 03:53:16;;;;;;;8.80;7.20;;;13.00;99.90;;;;;;5050988;28;20452;-51
2022/05/25 03:55:42;;;;;;;8.35;7.32;;;13.00;99.90;;;;;;5051165;28;20025;-50
2022/05/25 03:58:09;;;;;;;18.52;8.52;;;13.00;99.90;;;;;;5051595;28;20025;-54
2022/05/25 04:00:35;;;;;;;10.30;8.30;;;13.00;99.90;;;;;;5050810;28;20021;-52
2022/05/25 04:03:02;;;;;;;8.77;7.75;;;13.00;99.90;;;;;;5051066;28;20040;-55
2022/05/25 04:05:30;;;;;;;8.95;7.97;;;13.00;99.90;;;;;;5050779;28;20025;-52
2022/05/25 04:07:58;;;;;;;13.02;9.02;;;13.10;99.90;;;;;;5050943;28;20104;-55
2022/05/25 04:10:25;;;;;;;7.35;6.32;;;13.10;99.90;;;;;;5051376;28;20021;-54
2022/05/25 04:12:51;;;;;;;10.60;6.50;;;13.20;99.90;;;;;;5050536;28;20496;-52
2022/05/25 04:15:23;;;;;;;9.50;6.28;;;13.20;99.90;;;;;;5050871;28;20017;-50
2022/05/25 04:17:49;;;;;;;7.82;7.03;;;13.30;99.90;;;;;;5051020;28;20395;-51
2022/05/25 04:20:16;;;;;;;12.50;6.35;;;13.30;99.90;;;;;;5051386;28;20013;-49
2022/05/25 04:22:42;;;;;;;7.03;6.32;;;13.30;99.90;;;;;;5050262;28;20068;-54
2022/05/25 04:25:10;;;;;;;10.52;5.85;;;13.50;99.90;;;;;;5050726;28;20036;-52
2022/05/25 04:27:38;;;;;;;9.52;5.45;;;13.60;99.90;;;;;;5051031;28;20035;-52
2022/05/25 04:30:05;;;;;;;7.18;6.40;;;13.60;99.90;;;;;;5049314;28;20024;-50
2022/05/25 04:32:32;;;;;;;8.35;6.85;;;13.60;99.90;;;;;;5050323;28;20127;-53
2022/05/25 04:34:58;;;;;;;13.18;8.35;;;13.60;99.90;;;;;;5050559;28;20040;-52
2022/05/25 04:40:11;;;;;;;10.75;7.70;;;13.70;99.90;;;;;;5050976;28;20070;-52
2022/05/25 04:42:36;;;;;;;10.73;7.50;;;13.70;99.90;;;;;;5050287;28;20021;-53
2022/05/25 04:45:03;;;;;;;8.18;7.35;;;13.80;99.90;;;;;;5050077;28;20368;-49
2022/05/25 04:47:30;;;;;;;9.38;7.82;;;13.70;99.90;;;;;;5050048;28;20029;-53
2022/05/25 04:49:57;;;;;;;12.30;8.23;;;13.80;99.90;;;;;;5051052;28;20074;-52
2022/05/25 04:52:23;;;;;;;9.32;7.90;;;13.90;99.90;;;;;;5050891;28;20032;-52
2022/05/25 04:54:48;;;;;;;11.48;7.47;;;13.90;99.90;;;;;;5050786;28;20017;-54
2022/05/25 04:57:20;;;;;;;14.60;8.10;;;14.00;99.90;;;;;;5050909;28;20025;-51
2022/05/25 04:59:54;;;;;;;9.02;7.97;;;14.00;99.90;;;;;;5050492;28;20534;-51
2022/05/25 05:02:20;;;;;;;12.70;8.27;;;14.10;99.90;;;;;;5049847;28;20025;-53
2022/05/25 05:04:46;;;;;;;8.52;7.65;;;14.10;99.90;;;;;;5050168;28;20083;-54
2022/05/25 05:07:14;;;;;;;10.98;8.55;;;14.20;99.90;;;;;;5050303;28;20025;-56
2022/05/25 05:09:41;;;;;;;10.13;8.18;;;14.30;99.90;;;;;;5050401;28;20033;-54
2022/05/25 05:12:08;;;;;;;12.07;8.68;;;14.10;99.90;;;;;;5050529;28;20051;-50
2022/05/25 05:14:34;;;;;;;14.05;8.93;;;14.10;99.90;;;;;;5050006;28;20017;-55
2022/05/25 05:17:03;;;;;;;10.73;8.57;;;14.10;99.90;;;;;;5050643;28;20429;-53
2022/05/25 05:19:29;;;;;;;13.50;8.43;;;14.10;99.90;;;;;;5054209;28;20468;-55
2022/05/25 05:21:57;;;;;;;11.20;9.43;;;14.30;99.90;;;;;;5053468;28;20029;-52
2022/05/25 05:24:27;;;;;;;16.50;9.48;;;14.30;99.90;;;;;;5054475;28;20304;-54
2022/05/25 05:26:53;;;;;;;15.93;10.05;;;14.20;99.90;;;;;;5054285;28;20025;-53
2022/05/25 05:29:19;;;;;;;15.07;9.63;;;14.20;99.90;;;;;;5054631;28;20086;-47
2022/05/25 05:31:45;;;;;;;11.45;9.45;;;14.30;99.90;;;;;;5054452;28;20111;-53
2022/05/25 05:34:11;;;;;;;12.10;8.55;;;14.60;99.90;;;;;;5053824;28;20020;-56
2022/05/25 05:36:43;;;;;;;10.18;9.07;;;14.60;99.90;;;;;;5054035;28;20033;-52
2022/05/25 05:39:11;;;;;;;13.63;10.20;;;14.60;99.90;;;;;;5054182;28;20032;-52
2022/05/25 05:42:14;;;;;;;12.45;9.70;;;14.50;99.90;;;;;;5053662;28;20075;-52
2022/05/25 05:44:49;;;;;;;14.15;8.48;;;14.50;99.90;;;;;;5048045;28;20037;-52
2022/05/25 05:47:19;;;;;;;14.23;9.57;;;14.60;99.90;;;;;;5053638;28;20036;-50
2022/05/25 05:49:45;;;;;;;9.40;8.50;;;14.60;99.90;;;;;;5053763;28;20033;-50
2022/05/25 05:52:11;;;;;;;11.10;8.98;;;14.50;99.90;;;;;;5053998;28;20362;-51
2022/05/25 05:54:38;;;;;;;10.73;9.55;;;14.40;99.90;;;;;;5054343;28;20057;-50
2022/05/25 05:57:05;;;;;;;9.60;8.60;;;14.30;99.90;;;;;;5052917;28;20119;-55
2022/05/25 05:59:31;;;;;;;11.40;8.82;;;14.30;99.90;;;;;;5054208;28;20032;-53
2022/05/25 06:01:56;;;;;;;12.15;10.15;;;14.30;99.90;;;;;;5054115;28;20033;-54
2022/05/25 06:04:22;;;;;;;9.57;8.43;;;14.30;99.90;;;;;;5054012;28;20025;-52
2022/05/25 06:06:49;;;;;;;13.13;9.95;;;14.30;99.90;;;;;;5053918;28;20079;-53
2022/05/25 06:09:16;;;;;;;18.00;9.43;;;14.30;99.90;;;;;;5053633;28;20096;-53
2022/05/25 06:11:42;;;;;;;10.77;8.95;;;14.40;99.90;;;;;;5053624;28;20033;-54
2022/05/25 06:14:09;;;;;;;11.50;9.18;;;14.40;99.90;;;;;;5053533;28;20045;-52
2022/05/25 06:19:25;;;;;;;16.70;10.68;;;14.40;99.90;;;;;;5053712;28;20094;-53
2022/05/25 06:21:59;;;;;;;11.57;10.15;;;14.30;99.90;;;;;;5053330;28;20021;-55
2022/05/25 06:24:25;;;;;;;;;;;14.40;99.90;;;;;;5053787;28;20507;-53
2022/05/25 06:26:51;;;;;;;11.68;10.45;;;14.50;99.90;;;;;;5052675;28;20267;-56
2022/05/25 06:29:18;;;;;;;647.42;274.67;;;14.60;99.90;;;;;;5051516;28;20055;-53
2022/05/25 06:31:44;;;;;;;62.35;25.48;;;14.50;99.90;;;;;;5052393;28;20025;-49
2022/05/25 06:34:10;;;;;;;29.70;20.95;;;14.40;99.90;;;;;;5052194;28;20498;-49
2022/05/25 06:36:35;;;;;;;27.52;18.85;;;14.30;99.90;;;;;;5053263;28;20376;-51
2022/05/25 06:39:01;;;;;;;24.45;19.05;;;14.40;99.90;;;;;;5052752;28;20119;-50
2022/05/25 06:41:28;;;;;;;109.97;71.78;;;14.40;99.90;;;;;;5052173;28;20029;-48
2022/05/25 06:43:54;;;;;;;34.03;27.98;;;14.40;99.90;;;;;;5052202;28;20028;-52
2022/05/25 06:46:21;;;;;;;21.95;16.02;;;14.50;99.90;;;;;;5051922;28;20029;-47
2022/05/25 06:48:52;;;;;;;24.38;14.98;;;14.50;99.90;;;;;;5052402;28;20025;-54
2022/05/25 06:51:23;;;;;;;20.88;16.60;;;14.60;99.90;;;;;;5053282;28;20040;-53
2022/05/25 06:53:49;;;;;;;16.85;14.20;;;14.60;99.90;;;;;;5053009;28;20104;-51
2022/05/25 06:56:17;;;;;;;18.17;14.85;;;14.60;99.90;;;;;;5053012;28;20021;-54
2022/05/25 06:58:44;;;;;;;13.48;10.85;;;14.70;99.90;;;;;;5053074;28;20021;-49
2022/05/25 07:01:10;;;;;;;29.73;19.70;;;14.60;99.90;;;;;;5052930;28;20021;-50
2022/05/25 07:03:35;;;;;;;13.13;10.82;;;14.50;99.90;;;;;;5053103;28;20562;-53
2022/05/25 07:06:06;;;;;;;11.00;9.93;;;14.50;99.90;;;;;;5052844;28;20036;-53
2022/05/25 07:08:32;;;;;;;8.02;7.22;;;14.30;99.90;;;;;;5053097;28;20025;-51
2022/05/25 07:10:58;;;;;;;8.55;7.68;;;14.10;99.90;;;;;;5052382;28;20388;-54
2022/05/25 07:13:25;;;;;;;8.70;7.30;;;14.00;99.90;;;;;;5052614;28;20658;-50
2022/05/25 07:16:03;;;;;;;7.45;6.75;;;14.00;99.90;;;;;;5052512;28;20407;-55
2022/05/25 07:18:29;;;;;;;13.18;6.88;;;14.00;99.90;;;;;;5052647;28;20025;-50
2022/05/25 07:21:00;;;;;;;8.43;7.57;;;13.90;99.90;;;;;;5050684;28;20464;-52
2022/05/25 07:23:26;;;;;;;8.07;6.88;;;13.70;99.90;;;;;;5052192;28;20056;-51
2022/05/25 07:25:51;;;;;;;7.40;6.40;;;13.90;99.90;;;;;;5052316;28;20029;-51
2022/05/25 07:28:17;;;;;;;11.70;6.75;;;13.80;99.90;;;;;;5052464;28;20025;-52
2022/05/25 07:30:43;;;;;;;10.60;8.38;;;13.80;99.90;;;;;;5052338;28;20112;-53
2022/05/25 07:33:09;;;;;;;9.48;7.30;;;13.70;99.90;;;;;;5052209;28;20028;-52
2022/05/25 07:35:36;;;;;;;9.48;8.50;;;13.70;99.90;;;;;;5052468;28;20021;-52
2022/05/25 07:38:03;;;;;;;9.30;8.07;;;13.70;99.90;;;;;;5052299;28;20096;-55
2022/05/25 07:40:33;;;;;;;10.80;8.40;;;13.80;99.90;;;;;;5051843;28;20013;-49
2022/05/25 07:43:06;;;;;;;8.07;7.28;;;13.70;99.90;;;;;;5051512;28;20033;-51
2022/05/25 07:45:32;;;;;;;8.85;6.35;;;13.80;99.90;;;;;;5052099;28;20035;-52
2022/05/25 07:47:58;;;;;;;8.10;6.85;;;13.70;99.90;;;;;;5051872;28;20606;-50
2022/05/25 07:50:24;;;;;;;10.82;7.00;;;13.50;99.90;;;;;;5052298;28;20031;-52
2022/05/25 07:52:53;;;;;;;7.50;6.55;;;13.50;99.90;;;;;;5051904;28;20024;-53
2022/05/25 07:55:19;;;;;;;7.65;6.88;;;13.60;99.90;;;;;;5051934;28;20014;-55
2022/05/25 07:57:45;;;;;;;11.27;7.47;;;13.50;99.90;;;;;;5051738;28;20108;-50
2022/05/25 08:00:12;;;;;;;12.80;8.25;;;13.50;99.90;;;;;;5051873;28;20116;-52
2022/05/25 08:05:47;;;;;;;10.68;7.75;;;13.60;99.90;;;;;;5051902;28;20567;-52
2022/05/25 08:08:24;;;;;;;8.05;6.68;;;13.60;99.90;;;;;;5051772;28;20021;-51
2022/05/25 08:11:02;;;;;;;9.82;7.15;;;13.50;99.90;;;;;;5051792;28;20032;-51
2022/05/25 08:13:28;;;;;;;8.82;6.57;;;13.50;99.90;;;;;;5051628;28;20029;-51
2022/05/25 08:15:53;;;;;;;7.93;6.97;;;13.50;99.90;;;;;;5051560;28;20403;-50
2022/05/25 08:18:20;;;;;;;8.10;5.90;;;13.50;99.90;;;;;;5051738;28;20025;-51
2022/05/25 08:20:46;;;;;;;6.15;5.05;;;13.40;99.90;;;;;;5051506;28;20774;-49
2022/05/25 08:23:14;;;;;;;5.05;4.55;;;13.50;99.90;;;;;;5051512;28;20128;-52
2022/05/25 08:25:41;;;;;;;3.85;3.40;;;13.40;99.90;;;;;;5051449;28;20023;-53
2022/05/25 08:28:07;;;;;;;4.20;3.90;;;13.50;99.90;;;;;;5050473;28;20461;-55
2022/05/25 08:30:35;;;;;;;3.42;3.22;;;13.70;99.90;;;;;;5050671;28;20032;-55
2022/05/25 08:33:01;;;;;;;3.10;2.90;;;13.90;99.90;;;;;;5050697;28;20032;-52
2022/05/25 08:35:27;;;;;;;2.75;2.58;;;14.00;99.90;;;;;;5051304;28;20025;-50
2022/05/25 08:37:53;;;;;;;3.00;2.80;;;13.90;99.90;;;;;;5051240;28;20108;-54
2022/05/25 08:40:22;;;;;;;2.60;2.40;;;14.00;99.90;;;;;;5051510;28;20040;-52
2022/05/25 08:42:47;;;;;;;2.20;2.05;;;14.00;99.90;;;;;;5051316;28;20025;-53
2022/05/25 08:45:14;;;;;;;2.30;2.20;;;14.00;99.90;;;;;;5051393;28;20025;-49
2022/05/25 08:47:48;;;;;;;5.05;1.83;;;14.00;99.90;;;;;;5051309;28;20448;-54
2022/05/25 08:50:14;;;;;;;4.82;2.10;;;14.00;99.90;;;;;;5051272;28;20036;-54
2022/05/25 08:52:40;;;;;;;3.40;1.73;;;13.80;99.90;;;;;;5052056;28;20413;-53
2022/05/25 08:55:08;;;;;;;1.80;1.63;;;14.00;99.90;;;;;;5055347;28;20049;-54
2022/05/25 08:57:48;;;;;;;1.65;1.55;;;14.10;99.90;;;;;;5055377;28;20021;-51
2022/05/25 09:00:17;;;;;;;1.92;1.83;;;14.20;99.90;;;;;;5055334;28;20031;-52
2022/05/25 09:02:58;;;;;;;1.65;1.55;;;14.20;99.90;;;;;;5055170;28;20100;-53
2022/05/25 09:05:39;;;;;;;3.72;1.90;;;14.20;99.90;;;;;;5055198;28;20017;-52
2022/05/25 09:08:29;;;;;;;2.25;2.10;;;14.10;99.90;;;;;;5055117;28;20029;-53
2022/05/25 09:11:03;;;;;;;3.95;1.90;;;14.20;99.90;;;;;;5055069;28;20028;-54
2022/05/25 09:13:34;;;;;;;2.00;1.90;;;14.30;99.90;;;;;;5055085;28;20380;-51
2022/05/25 09:19:08;;;;;;;4.45;2.20;;;14.40;99.90;;;;;;5054755;28;20091;-52
2022/05/25 09:21:39;;;;;;;1.67;1.58;;;14.40;99.90;;;;;;5054957;28;20033;-51
2022/05/25 09:24:11;;;;;;;2.25;1.65;;;14.40;99.90;;;;;;5054560;28;20063;-51
2022/05/25 09:26:36;;;;;;;1.75;1.60;;;14.60;99.90;;;;;;5055077;28;20032;-50
2022/05/25 09:29:06;;;;;;;2.10;1.90;;;14.80;99.90;;;;;;5054643;28;20029;-52
2022/05/25 09:32:07;;;;;;;2.08;1.70;;;14.80;99.90;;;;;;5054914;28;20083;-54
2022/05/25 09:35:00;;;;;;;1.98;1.65;;;15.10;99.90;;;;;;5044926;28;20044;-52
2022/05/25 09:37:44;;;;;;;3.45;2.08;;;15.20;99.90;;;;;;5054059;28;20051;-50
2022/05/25 09:40:22;;;;;;;8.85;2.42;;;14.80;99.90;;;;;;5054620;28;20334;-51
2022/05/25 09:42:57;;;;;;;2.78;2.58;;;14.70;99.90;;;;;;5054263;28;20044;-50
2022/05/25 09:45:25;;;;;;;2.13;1.92;;;14.40;99.90;;;;;;5054551;28;20020;-55
2022/05/25 09:47:52;;;;;;;3.78;2.50;;;14.10;99.90;;;;;;5054004;28;20018;-49
2022/05/25 09:50:35;;;;;;;1.60;1.50;;;13.80;99.90;;;;;;5052958;28;20025;-55
2022/05/25 09:53:04;;;;;;;2.63;2.10;;;13.70;99.90;;;;;;5049345;28;20037;-52
2022/05/25 09:55:41;;;;;;;3.35;2.00;;;13.70;99.90;;;;;;5043556;28;20465;-55
2022/05/25 09:58:12;;;;;;;1.77;1.65;;;13.70;99.90;;;;;;5040356;28;20349;-53
2022/05/25 10:01:03;;;;;;;4.57;2.00;;;13.90;99.90;;;;;;5047176;28;20469;-52
2022/05/25 10:03:43;;;;;;;2.03;1.88;;;14.00;99.90;;;;;;5036298;28;20049;-48
2022/05/25 10:06:26;;;;;;;1.95;1.55;;;14.10;99.90;;;;;;5042343;28;20036;-55
2022/05/25 10:09:23;;;;;;;1.65;1.55;;;14.40;99.90;;;;;;5035824;28;20029;-54
2022/05/25 10:11:51;;;;;;;2.28;1.80;;;14.70;99.90;;;;;;5035427;28;20495;-49
2022/05/25 10:14:25;;;;;;;2.72;1.27;;;14.90;99.90;;;;;;5034402;28;20041;-55
2022/05/25 10:16:53;;;;;;;3.97;1.48;;;14.90;99.90;;;;;;5036063;28;20025;-53
2022/05/25 10:19:21;;;;;;;2.50;1.70;;;15.20;99.90;;;;;;5027418;28;20171;-53
2022/05/25 10:21:58;;;;;;;3.42;1.88;;;15.30;99.90;;;;;;5022255;28;20600;-53
2022/05/25 10:24:31;;;;;;;2.45;1.95;;;15.40;99.90;;;;;;5031716;28;20052;-55
2022/05/25 10:27:01;;;;;;;3.97;2.15;;;15.60;99.90;;;;;;5031018;28;20029;-50
2022/05/25 10:38:30;;;;;;;2.15;1.60;;;17.00;99.90;;;;;;5039166;28;20431;-52
2022/05/25 10:40:58;;;;;;;3.10;1.63;;;17.10;99.90;;;;;;5027840;28;20055;-53
2022/05/25 10:43:28;;;;;;;3.13;1.45;;;17.40;99.90;;;;;;5039740;28;20728;-54
2022/05/25 10:45:55;;;;;;;6.53;1.80;;;17.60;99.90;;;;;;5033293;28;20040;-53
2022/05/25 10:48:27;;;;;;;2.20;2.00;;;17.30;99.90;;;;;;5029542;28;20032;-51
2022/05/25 10:50:58;;;;;;;1.70;1.60;;;17.40;99.90;;;;;;5034579;28;20116;-51
2022/05/25 10:53:27;;;;;;;3.30;1.83;;;17.70;99.90;;;;;;5029061;28;20111;-51
2022/05/25 10:56:31;;;;;;;3.08;1.80;;;17.20;99.90;;;;;;5039260;28;20364;-55
2022/05/25 10:59:16;;;;;;;5.25;1.58;;;17.50;99.90;;;;;;5030409;28;20021;-56
2022/05/25 11:01:49;;;;;;;3.53;1.33;;;17.90;99.90;;;;;;5044931;28;20121;-56
2022/05/25 11:04:52;;;;;;;3.10;1.95;;;18.10;99.90;;;;;;5031075;28;20029;-54
2022/05/25 11:07:34;;;;;;;1.85;1.33;;;18.00;99.90;;;;;;5032016;28;20510;-55
2022/05/25 11:10:02;;;;;;;2.22;1.70;;;18.10;99.90;;;;;;5047137;28;20087;-56
2022/05/25 11:12:31;;;;;;;1.63;1.50;;;18.00;99.90;;;;;;5039522;28;20082;-55
2022/05/25 11:15:18;;;;;;;2.63;1.88;;;18.20;99.90;;;;;;5027029;28;20029;-55
2022/05/25 11:18:12;;;;;;;1.65;1.55;;;18.40;99.90;;;;;;5029047;28;20033;-56
2022/05/25 11:21:17;;;;;;;5.72;1.92;;;18.00;99.90;;;;;;5023327;28;20155;-55
2022/05/25 11:24:27;;;;;;;1.80;1.70;;;17.50;99.90;;;;;;5025488;28;20617;-48
2022/05/25 11:27:22;;;;;;;4.15;2.13;;;17.00;99.90;;;;;;5004868;28;20068;-53
2022/05/25 11:29:59;;;;;;;6.50;2.33;;;16.60;99.90;;;;;;5028437;28;20392;-53
2022/05/25 11:33:10;;;;;;;2.22;1.98;;;16.80;99.90;;;;;;5028272;28;20029;-54
2022/05/25 11:35:44;;;;;;;2.47;2.10;;;16.80;99.90;;;;;;5027884;28;20065;-56
2022/05/25 11:38:25;;;;;;;5.15;1.98;;;16.80;99.90;;;;;;5038916;28;20029;-56
2022/05/25 11:41:27;;;;;;;5.72;1.70;;;16.90;99.90;;;;;;5034148;28;20492;-50
2022/05/25 11:44:12;;;;;;;2.08;1.40;;;17.10;99.90;;;;;;5034885;28;20116;-51
2022/05/25 11:46:49;;;;;;;2.75;1.25;;;17.50;99.90;;;;;;5027740;28;20029;-52
2022/05/25 11:49:26;;;;;;;3.10;1.35;;;17.80;99.90;;;;;;5024264;28;20495;-55
2022/05/25 11:52:14;;;;;;;2.72;1.30;;;17.70;99.90;;;;;;5025099;28;20064;-55
2022/05/25 11:55:01;;;;;;;4.45;1.33;;;17.60;99.90;;;;;;5027467;28;21264;-56
2022/05/25 11:57:50;;;;;;;2.13;1.20;;;17.70;99.90;;;;;;5025878;28;20037;-53
2022/05/25 12:00:49;;;;;;;1.35;1.25;;;18.20;99.90;;;;;;5028207;28;20165;-55
2022/05/25 12:04:05;;;;;;;1.73;1.05;;;18.10;99.90;;;;;;5026756;28;20025;-51
2022/05/25 12:06:35;;;;;;;1.75;1.40;;;18.00;99.90;;;;;;4998297;28;20037;-57
2022/05/25 12:09:40;;;;;;;2.30;1.50;;;18.40;99.90;;;;;;5007765;28;20048;-53
2022/05/25 12:12:09;;;;;;;1.40;1.30;;;17.90;99.90;;;;;;5017821;28;23145;-53
2022/05/25 12:14:44;;;;;;;1.65;1.52;;;17.40;99.90;;;;;;5035578;28;20049;-51
2022/05/25 12:17:28;;;;;;;4.30;1.35;;;17.00;99.90;;;;;;5035094;28;20053;-53
2022/05/25 12:19:58;;;;;;;5.35;1.10;;;17.00;99.90;;;;;;5036719;28;20024;-52
2022/05/25 12:22:34;;;;;;;10.52;1.30;;;17.30;99.90;;;;;;5030729;28;20124;-56
2022/05/25 12:25:09;;;;;;;1.42;1.17;;;17.60;99.90;;;;;;5023614;28;20048;-56
2022/05/25 12:27:42;;;;;;;1.30;1.20;;;17.40;99.90;;;;;;5038435;28;20027;-53
2022/05/25 12:30:10;;;;;;;;;;;17.60;99.90;;;;;;5050472;28;20029;-53
2022/05/25 12:32:38;;;;;;;1.88;1.30;;;17.60;99.90;;;;;;5051479;28;19919;-53
2022/05/25 12:35:05;;;;;;;7.53;1.52;;;17.40;99.90;;;;;;5051132;28;20029;-52
2022/05/25 12:37:41;;;;;;;1.73;1.40;;;17.30;99.90;;;;;;5051525;28;20021;-52
2022/05/25 12:40:33;;;;;;;1.40;1.30;;;17.30;99.90;;;;;;5051746;28;20033;-50
2022/05/25 12:42:59;;;;;;;1.17;1.08;;;17.70;99.90;;;;;;5051176;28;20083;-53
2022/05/25 12:48:33;;;;;;;4.30;2.03;;;17.50;99.90;;;;;;5051373;28;20098;-51
2022/05/25 12:51:09;;;;;;;5.30;1.63;;;17.50;99.90;;;;;;5051183;28;20472;-54
2022/05/25 12:53:54;;;;;;;1.65;1.35;;;17.60;99.90;;;;;;5051313;28;20064;-55
2022/05/25 12:56:23;;;;;;;1.48;1.20;;;17.50;99.90;;;;;;5050651;28;20032;-51
2022/05/25 12:58:52;;;;;;;1.52;1.00;;;17.60;99.90;;;;;;5050967;28;20025;-53
2022/05/25 13:01:23;;;;;;;2.13;1.40;;;17.40;99.90;;;;;;5049692;28;20506;-54
2022/05/25 13:03:49;;;;;;;1.63;1.48;;;17.30;99.90;;;;;;5050941;28;20025;-54
2022/05/25 13:06:21;;;;;;;1.40;1.30;;;17.30;99.90;;;;;;5051256;28;20123;-51
2022/05/25 13:08:47;;;;;;;5.22;1.27;;;17.30;99.90;;;;;;5050981;28;20060;-52
2022/05/25 13:11:37;;;;;;;1.70;1.40;;;17.50;99.90;;;;;;5051221;28;20060;-52
2022/05/25 13:14:03;;;;;;;2.17;1.63;;;17.60;99.90;;;;;;5050271;28;20651;-51
2022/05/25 13:16:57;;;;;;;1.70;1.60;;;17.40;99.90;;;;;;5050797;28;20082;-50
2022/05/25 13:19:37;;;;;;;2.30;1.77;;;17.40;99.90;;;;;;5049965;28;20036;-55
2022/05/25 13:22:04;;;;;;;2.15;1.50;;;17.40;99.90;;;;;;5050671;28;20025;-55
2022/05/25 13:25:08;;;;;;;1.95;1.30;;;17.40;99.90;;;;;;5050954;28;20060;-54
2022/05/25 13:28:04;;;;;;;1.50;1.40;;;17.40;99.90;;;;;;5050777;28;20036;-50
2022/05/25 13:30:38;;;;;;;3.53;1.52;;;17.50;99.90;;;;;;5051143;28;20028;-50
2022/05/25 13:33:35;;;;;;;2.25;1.50;;;17.50;99.90;;;;;;5050366;28;20100;-54
2022/05/25 13:36:20;;;;;;;2.45;1.42;;;17.40;99.90;;;;;;5050874;28;20025;-52
2022/05/25 13:39:07;;;;;;;2.65;1.67;;;17.40;99.90;;;;;;5051759;28;20361;-53
2022/05/25 13:41:48;;;;;;;1.88;1.27;;;17.70;99.90;;;;;;5054632;28;20027;-53